Time;durP1;ratioP1;P1;durP2;ratioP2;P2;SDS_P1;SDS_P2;PMS_P1;PMS_P2;Temp;Humidity;BMP_temperature;BMP_pressure;BME280_temperature;BME280_humidity;BME280_pressure;Samples;Min_cycle;Max_cycle;Signal;HPM_P1;HPM_P2
2022/07/01 00:00:03;;;;;;;0.70;0.60;;;;;;;17.10;70.80;99144.56;5121343;28;20525;-73
2022/07/01 00:03:02;;;;;;;2.35;0.52;;;;;;;17.51;69.30;99157.53;5141222;28;20623;-71
2022/07/01 00:05:52;;;;;;;3.75;0.70;;;;;;;17.40;69.84;99164.19;5141057;28;20539;-71
2022/07/01 00:08:42;;;;;;;2.03;0.70;;;;;;;17.49;69.82;99171.13;5128178;28;20080;-72
2022/07/01 00:11:32;;;;;;;1.40;0.73;;;;;;;17.53;69.22;99168.91;5140203;28;20528;-72
2022/07/01 00:14:22;;;;;;;1.00;0.80;;;;;;;17.68;68.93;99177.81;5141404;28;20077;-71
2022/07/01 00:17:13;;;;;;;5.90;0.98;;;;;;;17.47;71.09;99180.38;5141034;28;20050;-71
2022/07/01 00:20:04;;;;;;;3.45;1.05;;;;;;;16.98;70.92;99186.19;5140431;28;20085;-71
2022/07/01 00:22:54;;;;;;;3.00;0.60;;;;;;;17.07;70.57;99172.53;5128188;28;20062;-72
2022/07/01 00:25:45;;;;;;;2.35;0.80;;;;;;;17.45;70.09;99182.38;5142507;28;20193;-72
2022/07/01 00:28:35;;;;;;;2.05;0.57;;;;;;;16.98;70.72;99184.31;5140048;28;20576;-71
2022/07/01 00:31:26;;;;;;;0.98;0.70;;;;;;;17.09;70.31;99189.28;5141282;28;20058;-73
2022/07/01 00:34:16;;;;;;;3.05;0.60;;;;;;;17.16;69.02;99170.63;5142416;28;20061;-71
2022/07/01 00:37:06;;;;;;;3.70;0.75;;;;;;;17.25;69.51;99174.91;5142162;28;20050;-72
2022/07/01 00:39:56;;;;;;;6.28;0.80;;;;;;;17.25;70.61;99184.75;5142049;28;20095;-72
2022/07/01 00:42:46;;;;;;;1.05;0.60;;;;;;;17.26;70.26;99198.00;5141115;28;20050;-71
2022/07/01 00:45:44;;;;;;;1.17;0.60;;;;;;;17.35;69.08;99190.69;5142293;28;20086;-71
2022/07/01 00:48:36;;;;;;;1.52;0.70;;;;;;;17.02;69.81;99193.69;5142109;28;20105;-71
2022/07/01 00:51:26;;;;;;;3.08;1.00;;;;;;;16.93;70.93;99197.44;5141298;28;20091;-71
2022/07/01 00:54:16;;;;;;;2.70;0.77;;;;;;;16.87;71.23;99193.63;5141840;28;20513;-72
2022/07/01 00:57:14;;;;;;;0.77;0.60;;;;;;;17.14;70.98;99180.69;5129986;28;20628;-71
2022/07/01 01:00:11;;;;;;;1.80;0.70;;;;;;;16.77;71.02;99168.09;5141410;28;20114;-71
2022/07/01 01:03:01;;;;;;;3.75;0.65;;;;;;;16.58;71.12;99151.47;5136615;28;20433;-71
2022/07/01 01:05:54;;;;;;;1.95;0.73;;;;;;;16.57;72.25;99149.81;5141769;28;20055;-72
2022/07/01 01:08:46;;;;;;;1.80;0.87;;;;;;;16.42;72.34;99157.78;5141149;28;20446;-71
2022/07/01 01:11:37;;;;;;;1.83;0.77;;;;;;;16.37;73.52;99170.84;5140125;28;20051;-71
2022/07/01 01:14:27;;;;;;;2.88;0.80;;;;;;;16.74;70.21;99165.75;5141723;28;20177;-71
2022/07/01 01:17:18;;;;;;;3.60;0.82;;;;;;;16.17;73.63;99154.41;5141327;28;20064;-70
2022/07/01 01:20:14;;;;;;;5.35;0.77;;;;;;;16.45;74.21;99138.66;5141167;28;20054;-71
2022/07/01 01:23:04;;;;;;;4.45;0.75;;;;;;;16.59;72.44;99153.16;5140641;28;20050;-71
2022/07/01 01:25:55;;;;;;;1.40;0.80;;;;;;;16.16;73.15;99152.75;5141352;28;20148;-71
2022/07/01 01:28:46;;;;;;;3.53;1.08;;;;;;;16.31;73.86;99154.66;5141464;28;20493;-71
2022/07/01 01:31:36;;;;;;;5.35;0.90;;;;;;;16.36;73.56;99153.16;5138560;28;20059;-71
2022/07/01 01:34:27;;;;;;;2.55;1.10;;;;;;;16.42;72.93;99144.41;5141252;28;20058;-71
2022/07/01 01:37:17;;;;;;;1.50;0.75;;;;;;;16.49;72.14;99141.84;5126640;28;20105;-72
2022/07/01 01:40:08;;;;;;;4.88;0.90;;;;;;;16.15;73.56;99145.72;5141071;28;20062;-72
2022/07/01 01:42:58;;;;;;;1.33;0.80;;;;;;;16.64;71.45;99117.81;5141223;28;20081;-71
2022/07/01 01:45:48;;;;;;;1.10;0.60;;;;;;;16.77;71.27;99128.78;5140867;28;20058;-71
2022/07/01 01:48:39;;;;;;;3.53;0.70;;;;;;;16.63;71.56;99114.31;5141306;28;20053;-72
2022/07/01 01:51:29;;;;;;;0.50;0.50;;;;;;;16.38;72.06;99102.09;5139422;28;20051;-72
2022/07/01 01:54:19;;;;;;;0.82;0.60;;;;;;;16.28;72.10;99123.75;5141217;28;20533;-72
2022/07/01 01:57:09;;;;;;;0.70;0.55;;;;;;;16.33;72.72;99121.38;5141249;28;20057;-73
2022/07/01 01:59:59;;;;;;;3.03;0.63;;;;;;;16.15;73.12;99118.97;5141469;28;20121;-71
2022/07/01 02:02:50;;;;;;;0.82;0.68;;;;;;;16.02;72.85;99109.88;5125764;28;20113;-71
2022/07/01 02:05:40;;;;;;;3.70;0.77;;;;;;;15.85;73.73;99096.56;5140002;28;20054;-71
2022/07/01 02:08:37;;;;;;;1.70;0.70;;;;;;;16.00;73.55;99088.66;5140772;28;20152;-72
2022/07/01 02:11:28;;;;;;;2.08;0.88;;;;;;;16.65;70.44;99081.97;5139172;28;20152;-74
2022/07/01 02:14:18;;;;;;;2.85;1.00;;;;;;;16.23;72.51;99072.63;5137964;28;20209;-72
2022/07/01 02:17:08;;;;;;;1.35;0.70;;;;;;;16.26;72.57;99056.22;5140600;28;20521;-71
2022/07/01 02:19:58;;;;;;;3.63;1.02;;;;;;;15.97;72.94;99055.06;5140788;28;20065;-73
2022/07/01 02:22:49;;;;;;;3.30;0.73;;;;;;;16.21;71.46;99037.19;5137237;28;20061;-71
2022/07/01 02:25:39;;;;;;;1.20;0.75;;;;;;;16.04;72.78;99070.41;5140354;28;20069;-72
2022/07/01 02:28:30;;;;;;;2.30;0.70;;;;;;;15.27;75.03;99049.72;5170957;23;20132;-71
2022/07/01 02:31:20;;;;;;;0.95;0.73;;;;;;;15.78;74.58;99055.50;5159936;28;20050;-70
2022/07/01 02:34:11;;;;;;;1.27;0.70;;;;;;;16.37;72.87;99065.66;5161435;28;20050;-70
2022/07/01 02:37:01;;;;;;;2.33;1.00;;;;;;;16.09;73.83;99054.66;5160794;28;20046;-70
2022/07/01 02:39:52;;;;;;;1.65;0.80;;;;;;;15.59;74.80;99050.56;5160995;28;20221;-70
2022/07/01 02:42:42;;;;;;;2.15;1.10;;;;;;;15.98;73.67;99058.56;5163192;28;20058;-71
2022/07/01 02:45:33;;;;;;;1.30;0.68;;;;;;;16.03;73.09;99056.22;5165104;28;20108;-70
2022/07/01 02:48:23;;;;;;;2.10;0.85;;;;;;;15.79;73.89;99077.72;5165056;28;20504;-70
2022/07/01 02:51:14;;;;;;;2.20;0.98;;;;;;;16.29;72.73;99076.41;5164026;28;20061;-70
2022/07/01 02:54:04;;;;;;;2.67;0.85;;;;;;;16.52;70.26;99089.78;5164678;28;20496;-70
2022/07/01 02:56:55;;;;;;;2.45;1.02;;;;;;;16.36;71.39;99093.44;5164705;28;20061;-70
2022/07/01 02:59:45;;;;;;;1.80;0.90;;;;;;;16.31;72.84;99098.47;5164755;28;20077;-71
2022/07/01 03:02:36;;;;;;;2.47;1.10;;;;;;;16.61;70.06;99099.44;5162755;28;20073;-71
2022/07/01 03:05:27;;;;;;;2.17;1.13;;;;;;;16.53;71.25;99094.97;5164454;28;20394;-71
2022/07/01 03:08:17;;;;;;;1.95;1.10;;;;;;;16.58;72.76;99097.09;5163667;28;20054;-70
2022/07/01 03:11:07;;;;;;;1.10;1.00;;;;;;;16.51;71.68;99107.69;5164551;28;20108;-71
2022/07/01 03:14:04;;;;;;;3.28;1.25;;;;;;;16.67;70.65;99117.44;5149380;28;20266;-71
2022/07/01 03:16:54;;;;;;;2.67;1.00;;;;;;;15.66;72.97;99097.84;5163971;28;20152;-71
2022/07/01 03:19:46;;;;;;;4.72;1.10;;;;;;;15.86;73.23;99106.28;5163108;28;20046;-71
2022/07/01 03:22:37;;;;;;;1.92;1.00;;;;;;;15.65;73.37;99116.69;5162307;28;20647;-71
2022/07/01 03:25:27;;;;;;;2.03;0.93;;;;;;;15.11;73.18;99069.28;5149456;28;20241;-70
2022/07/01 03:28:18;;;;;;;1.08;1.00;;;;;;;15.96;72.96;99132.81;5162906;28;20129;-70
2022/07/01 03:31:08;;;;;;;1.77;0.82;;;;;;;15.68;73.63;99132.41;5163646;28;20126;-70
2022/07/01 03:33:59;;;;;;;2.28;1.10;;;;;;;15.68;72.70;99135.91;5164228;28;20435;-71
2022/07/01 03:36:49;;;;;;;1.73;1.00;;;;;;;15.91;72.05;99133.31;5162527;28;20173;-70
2022/07/01 03:39:40;;;;;;;4.95;0.90;;;;;;;16.18;71.68;99126.66;5163859;28;20054;-70
2022/07/01 03:42:30;;;;;;;0.75;0.75;;;;;;;16.34;71.73;99128.38;5163316;28;20516;-71
2022/07/01 03:45:20;;;;;;;1.25;0.90;;;;;;;16.67;69.80;99155.75;5163013;28;20054;-70
2022/07/01 03:48:11;;;;;;;0.95;0.82;;;;;;;16.49;70.85;99165.94;5144707;28;20054;-70
2022/07/01 03:51:01;;;;;;;0.98;0.95;;;;;;;16.29;70.61;99178.94;5155625;28;20047;-70
2022/07/01 03:57:01;;;;;;;3.70;1.20;;;;;;;16.54;70.18;99210.91;5162519;28;20468;-71
2022/07/01 03:59:52;;;;;;;1.05;0.85;;;;;;;16.60;70.24;99199.50;5149461;28;20046;-72
2022/07/01 04:02:42;;;;;;;1.42;1.30;;;;;;;16.35;71.00;99221.03;5156850;28;20496;-72
2022/07/01 04:05:35;;;;;;;4.32;1.25;;;;;;;16.33;72.00;99223.06;5162959;28;20108;-71
2022/07/01 04:08:26;;;;;;;2.58;1.55;;;;;;;16.63;70.99;99226.75;5148554;28;20081;-71
2022/07/01 04:11:16;;;;;;;1.48;1.38;;;;;;;16.71;70.52;99230.38;5162431;28;20112;-71
2022/07/01 04:14:07;;;;;;;2.50;1.20;;;;;;;16.38;70.80;99236.75;5162732;28;20057;-72
2022/07/01 04:16:57;;;;;;;3.88;1.80;;;;;;;16.59;70.40;99249.53;5162394;28;20057;-72
2022/07/01 04:19:48;;;;;;;3.30;1.30;;;;;;;16.73;70.08;99245.25;5162823;28;20057;-72
2022/07/01 04:22:38;;;;;;;1.55;1.45;;;;;;;16.73;70.07;99245.25;5161699;28;20416;-71
2022/07/01 04:25:29;;;;;;;2.53;1.50;;;;;;;16.23;71.94;99259.06;5163414;28;20527;-72
2022/07/01 04:28:20;;;;;;;1.75;1.63;;;;;;;16.35;72.01;99271.88;5146977;28;20054;-72
2022/07/01 04:31:10;;;;;;;3.53;1.77;;;;;;;16.55;71.13;99274.13;5147222;28;20054;-71
2022/07/01 04:34:01;;;;;;;2.67;1.60;;;;;;;16.12;73.19;99284.34;5162130;28;20061;-72
2022/07/01 04:36:51;;;;;;;2.22;1.35;;;;;;;16.47;72.25;99293.75;5160903;28;20066;-72
2022/07/01 04:39:42;;;;;;;3.17;1.80;;;;;;;16.57;70.58;99282.81;5162158;28;20054;-72
2022/07/01 04:42:32;;;;;;;4.07;2.00;;;;;;;16.78;68.79;99291.09;5148088;28;20061;-71
2022/07/01 04:45:23;;;;;;;3.92;1.92;;;;;;;16.51;69.99;99294.22;5161271;28;20053;-71
2022/07/01 04:48:14;;;;;;;2.45;2.10;;;;;;;16.79;69.75;99290.09;5161837;28;20053;-70
2022/07/01 04:51:04;;;;;;;2.08;1.83;;;;;;;16.67;70.17;99286.13;5161921;28;20054;-70
2022/07/01 04:53:55;;;;;;;3.53;2.10;;;;;;;16.31;71.08;99291.13;5162137;28;20053;-71
2022/07/01 04:56:45;;;;;;;4.68;2.10;;;;;;;16.73;70.05;99288.09;5161167;28;20054;-70
2022/07/01 04:59:36;;;;;;;5.05;2.17;;;;;;;16.68;70.79;99293.97;5162467;28;20058;-70
2022/07/01 05:02:26;;;;;;;2.40;2.10;;;;;;;16.81;71.30;99287.22;5158668;28;20061;-71
2022/07/01 05:05:17;;;;;;;3.70;2.10;;;;;;;16.33;71.08;99287.28;5161612;28;20065;-70
2022/07/01 05:08:07;;;;;;;4.15;1.90;;;;;;;16.69;71.64;99294.81;5160151;28;20102;-71
2022/07/01 05:10:57;;;;;;;5.28;2.28;;;;;;;16.68;71.50;99288.59;5159120;28;20579;-70
2022/07/01 05:13:48;;;;;;;3.00;2.15;;;;;;;16.72;70.28;99290.94;5154432;28;20050;-68
2022/07/01 05:16:38;;;;;;;3.05;2.42;;;;;;;16.44;72.17;99294.91;5161530;28;20424;-69
2022/07/01 05:22:37;;;;;;;3.60;2.60;;;;;;;16.68;71.05;99302.00;5146915;28;20057;-69
2022/07/01 05:25:27;;;;;;;3.33;2.45;;;;;;;16.69;71.03;99302.84;5161718;28;20058;-70
2022/07/01 05:28:17;;;;;;;4.20;2.40;;;;;;;16.59;71.05;99304.91;5161298;28;20467;-70
2022/07/01 05:31:07;;;;;;;7.13;2.78;;;;;;;16.62;73.05;99308.06;5161000;28;20061;-70
2022/07/01 05:33:58;;;;;;;4.20;2.60;;;;;;;16.72;71.53;99310.53;5159266;28;20051;-69
2022/07/01 05:36:54;;;;;;;3.72;2.92;;;;;;;17.00;70.98;99326.13;5161376;28;20108;-70
2022/07/01 05:39:44;;;;;;;5.00;2.38;;;;;;;16.97;70.86;99315.78;5160672;28;20585;-72
2022/07/01 05:42:40;;;;;;;5.65;2.58;;;;;;;16.81;70.69;99308.66;5160916;28;20528;-71
2022/07/01 05:45:30;;;;;;;3.05;2.47;;;;;;;16.76;70.46;99300.34;5161715;28;20066;-72
2022/07/01 05:48:20;;;;;;;5.93;2.38;;;;;;;16.72;70.96;99299.81;5161648;28;20509;-73
2022/07/01 05:51:10;;;;;;;3.60;3.05;;;;;;;16.88;71.09;99312.28;5160537;28;20523;-71
2022/07/01 05:54:00;;;;;;;4.13;2.70;;;;;;;16.39;71.86;99297.31;5160213;28;20061;-70
2022/07/01 05:56:51;;;;;;;4.35;2.60;;;;;;;16.77;71.11;99307.34;5160264;28;20054;-71
2022/07/01 05:59:41;;;;;;;3.60;2.90;;;;;;;16.64;72.83;99302.53;5146852;28;20177;-71
2022/07/01 06:02:31;;;;;;;3.30;2.97;;;;;;;16.58;72.71;99303.22;5159979;28;20119;-71
2022/07/01 06:05:22;;;;;;;4.55;2.85;;;;;;;16.55;71.17;99290.19;5161296;28;20050;-71
2022/07/01 06:08:12;;;;;;;6.30;2.95;;;;;;;16.27;73.44;99304.03;5161267;28;20133;-69
2022/07/01 06:11:03;;;;;;;4.85;2.80;;;;;;;16.54;72.08;99307.28;5160539;28;20485;-70
2022/07/01 06:13:53;;;;;;;6.93;3.20;;;;;;;16.70;72.56;99304.50;5161072;28;20124;-72
2022/07/01 06:16:44;;;;;;;3.05;2.60;;;;;;;16.79;71.11;99308.03;5160905;28;20181;-72
2022/07/01 06:19:35;;;;;;;2.72;2.20;;;;;;;16.71;72.28;99306.16;5165746;28;20680;-71
2022/07/01 06:22:25;;;;;;;4.63;2.20;;;;;;;16.66;71.13;99319.25;5163700;28;20055;-70
2022/07/01 06:25:15;;;;;;;6.68;2.42;;;;;;;16.59;71.03;99323.66;5165502;28;20112;-70
2022/07/01 06:28:06;;;;;;;4.72;2.65;;;;;;;16.45;72.46;99299.25;5164812;28;20752;-70
2022/07/01 06:30:57;;;;;;;4.60;2.97;;;;;;;16.55;72.39;99314.28;5162859;28;20532;-70
2022/07/01 06:33:48;;;;;;;5.00;2.75;;;;;;;16.66;71.28;99329.97;5160583;28;20062;-70
2022/07/01 06:36:38;;;;;;;4.25;2.60;;;;;;;16.54;72.47;99326.84;5164742;28;20054;-70
2022/07/01 06:39:28;;;;;;;5.18;2.55;;;;;;;16.91;71.18;99328.84;5164725;28;20058;-71
2022/07/01 06:42:18;;;;;;;4.60;2.65;;;;;;;16.53;72.70;99340.41;5161757;28;20065;-70
2022/07/01 06:45:09;;;;;;;3.80;2.50;;;;;;;16.68;72.83;99338.66;5165016;28;20057;-69
2022/07/01 06:48:00;;;;;;;4.97;2.50;;;;;;;16.81;72.73;99348.81;5166084;28;20057;-68
2022/07/01 06:50:50;;;;;;;6.25;2.00;;;;;;;16.99;71.58;99332.50;5164980;28;20069;-70
2022/07/01 06:53:41;;;;;;;3.35;2.25;;;;;;;16.98;70.85;99347.72;5165966;28;20100;-70
2022/07/01 06:56:31;;;;;;;4.70;2.00;;;;;;;16.94;71.79;99361.66;5152693;28;20085;-69
2022/07/01 06:59:21;;;;;;;4.18;1.90;;;;;;;16.96;72.26;99348.94;5164853;28;20053;-70
2022/07/01 07:02:11;;;;;;;5.15;1.80;;;;;;;17.20;70.83;99355.97;5162757;28;20038;-70
2022/07/01 07:05:02;;;;;;;4.50;1.95;;;;;;;16.79;72.94;99351.69;5161830;28;20452;-70
2022/07/01 07:07:53;;;;;;;4.47;1.60;;;;;;;17.02;71.26;99367.81;5163896;28;20475;-72
2022/07/01 07:10:48;;;;;;;1.98;1.38;;;;;;;17.16;71.72;99373.44;5163465;28;20329;-72
2022/07/01 07:13:38;;;;;;;4.30;1.27;;;;;;;16.86;72.12;99374.09;5162744;28;20089;-71
2022/07/01 07:16:29;;;;;;;1.65;1.42;;;;;;;17.22;71.41;99380.72;5162843;28;20094;-71
2022/07/01 07:19:19;;;;;;;3.30;0.95;;;;;;;16.52;71.64;99376.19;5163498;28;20050;-72
2022/07/01 07:22:10;;;;;;;3.50;1.40;;;;;;;16.78;72.84;99381.31;5162491;28;20452;-71
2022/07/01 07:25:00;;;;;;;2.90;1.30;;;;;;;17.28;70.98;99382.72;5164519;28;20508;-71
2022/07/01 07:27:50;;;;;;;1.27;1.17;;;;;;;16.96;71.97;99381.91;5163040;28;20077;-71
2022/07/01 07:30:40;;;;;;;2.42;1.38;;;;;;;17.30;68.61;99386.88;5162148;28;20578;-71
2022/07/01 07:33:30;;;;;;;2.78;1.40;;;;;;;16.93;71.48;99384.09;5163195;28;20054;-71
2022/07/01 07:36:21;;;;;;;2.15;1.50;;;;;;;17.31;71.44;99383.19;5163494;28;20458;-71
2022/07/01 07:39:10;;;;;;;4.07;1.83;;;;;;;17.21;70.52;99392.47;5163627;28;20292;-71
2022/07/01 07:42:01;;;;;;;1.50;1.40;;;;;;;17.45;69.54;99403.06;5162531;28;20057;-71
2022/07/01 07:44:51;;;;;;;2.80;1.60;;;;;;;17.16;69.77;99389.50;5163155;28;20481;-71
2022/07/01 07:47:54;;;;;;;2.90;1.63;;;;;;;17.38;69.48;99386.84;5162449;28;20121;-71
2022/07/01 07:50:44;;;;;;;2.78;2.00;;;;;;;17.34;70.59;99384.69;5162037;28;20466;-71
2022/07/01 07:53:34;;;;;;;4.57;2.53;;;;;;;17.64;68.99;99382.97;5162780;28;20423;-71
2022/07/01 07:56:26;;;;;;;3.40;1.98;;;;;;;17.73;67.93;99376.53;5162162;28;20420;-71
2022/07/01 07:59:17;;;;;;;2.63;2.10;;;;;;;17.03;68.74;99364.13;5162792;28;20311;-71
2022/07/01 08:02:07;;;;;;;3.33;1.95;;;;;;;17.31;69.65;99385.03;5161927;28;20077;-71
2022/07/01 08:04:58;;;;;;;2.95;2.30;;;;;;;17.37;70.08;99382.47;5163634;28;20058;-71
2022/07/01 08:07:48;;;;;;;6.85;2.28;;;;;;;17.09;70.73;99390.22;5148958;28;20104;-71
2022/07/01 08:10:38;;;;;;;3.05;2.10;;;;;;;17.17;69.45;99391.16;5162112;28;20069;-71
2022/07/01 08:13:28;;;;;;;2.72;2.17;;;;;;;17.07;70.09;99388.72;5161280;28;20058;-71
2022/07/01 08:16:19;;;;;;;3.75;2.25;;;;;;;17.01;70.47;99402.81;5161926;28;20333;-71
2022/07/01 08:19:09;;;;;;;4.00;2.60;;;;;;;17.25;69.68;99410.72;5163195;28;20080;-71
2022/07/01 08:21:59;;;;;;;4.20;2.50;;;;;;;17.29;69.55;99405.84;5148123;28;20188;-71
2022/07/01 08:24:50;;;;;;;4.75;2.72;;;;;;;16.60;71.58;99422.53;5163224;28;20527;-71
2022/07/01 08:27:40;;;;;;;9.45;2.45;;;;;;;16.52;71.17;99392.25;5173089;23;20062;-71
2022/07/01 08:30:31;;;;;;;5.50;2.65;;;;;;;17.19;70.96;99422.16;5141103;28;20046;-71
2022/07/01 08:33:21;;;;;;;3.22;2.65;;;;;;;17.16;70.15;99430.53;5142103;28;20457;-73
2022/07/01 08:36:13;;;;;;;4.10;2.95;;;;;;;17.20;69.91;99433.69;5141221;28;20054;-71
2022/07/01 08:39:04;;;;;;;6.13;3.22;;;;;;;17.12;71.32;99432.72;5141838;28;20054;-71
2022/07/01 08:41:54;;;;;;;5.75;3.42;;;;;;;17.45;70.22;99437.91;5131110;28;20417;-73
2022/07/01 08:44:45;;;;;;;6.22;3.17;;;;;;;17.40;70.24;99444.81;5141276;28;20058;-70
2022/07/01 08:47:52;;;;;;;5.18;3.10;;;;;;;17.32;69.80;99445.69;5141739;28;20073;-71
2022/07/01 08:50:43;;;;;;;4.45;3.13;;;;;;;17.05;70.06;99452.34;5141991;28;20086;-73
2022/07/01 08:53:33;;;;;;;3.15;2.85;;;;;;;17.47;68.70;99461.84;5141516;28;20859;-71
2022/07/01 08:56:42;;;;;;;6.20;3.35;;;;;;;17.49;68.98;99470.56;5140462;28;20053;-71
2022/07/01 08:59:32;;;;;;;3.83;2.85;;;;;;;17.11;69.96;99452.47;5141928;28;20078;-73
2022/07/01 09:02:24;;;;;;;4.45;3.13;;;;;;;17.39;69.60;99468.09;5140733;28;20062;-71
2022/07/01 09:05:14;;;;;;;4.85;2.80;;;;;;;17.25;69.57;99466.13;5124781;28;20054;-71
2022/07/01 09:08:06;;;;;;;6.75;3.10;;;;;;;17.45;69.60;99463.84;5141508;28;20076;-71
2022/07/01 09:10:56;;;;;;;4.43;2.80;;;;;;;17.29;69.82;99471.00;5140837;28;20061;-71
2022/07/01 09:14:09;;;;;;;5.18;3.25;;;;;;;17.11;70.67;99467.72;5126213;28;20571;-71
2022/07/01 09:17:04;;;;;;;4.38;3.30;;;;;;;17.12;69.88;99472.09;5141413;28;20518;-70
2022/07/01 09:19:54;;;;;;;4.47;3.10;;;;;;;16.95;71.50;99467.78;5141418;28;20073;-70
2022/07/01 09:22:57;;;;;;;4.28;3.10;;;;;;;16.87;70.33;99461.44;5140984;28;20095;-71
2022/07/01 09:25:51;;;;;;;4.53;3.38;;;;;;;17.25;69.08;99474.19;5128530;28;20061;-70
2022/07/01 09:28:52;;;;;;;6.07;3.58;;;;;;;17.06;71.07;99457.53;5140310;28;20061;-71
2022/07/01 09:31:48;;;;;;;5.57;3.60;;;;;;;17.29;69.51;99444.19;5139978;28;20100;-71
2022/07/01 09:34:47;;;;;;;4.32;3.17;;;;;;;17.28;67.97;99425.59;5127484;28;20054;-71
2022/07/01 09:37:37;;;;;;;4.05;2.80;;;;;;;17.22;68.91;99435.19;5141515;28;20055;-71
2022/07/01 09:40:55;;;;;;;4.28;3.20;;;;;;;17.20;70.26;99461.31;5140478;28;20047;-71
2022/07/01 09:43:45;;;;;;;3.65;2.80;;;;;;;17.21;68.68;99465.66;5140814;28;20172;-71
2022/07/01 09:46:35;;;;;;;5.75;2.97;;;;;;;17.12;69.33;99469.41;5141300;28;20591;-71
2022/07/01 09:49:26;;;;;;;4.20;3.58;;;;;;;17.32;69.35;99469.81;5140604;28;20063;-70
2022/07/01 09:52:17;;;;;;;5.45;3.33;;;;;;;17.16;68.23;99429.69;5139951;28;20050;-71
2022/07/01 09:55:08;;;;;;;4.53;3.20;;;;;;;17.52;68.58;99468.34;5145186;28;20050;-70
2022/07/01 09:57:58;;;;;;;5.70;3.60;;;;;;;17.50;69.44;99464.16;5145611;28;20081;-71
2022/07/01 10:00:48;;;;;;;5.68;3.33;;;;;;;17.04;69.98;99450.69;5141114;28;20061;-74
2022/07/01 10:03:46;;;;;;;5.90;3.45;;;;;;;17.32;69.28;99459.91;5145611;28;20358;-74
2022/07/01 10:07:29;;;;;;;4.97;3.05;;;;;;;17.37;68.23;99464.75;5143503;28;20065;-72
2022/07/01 10:10:37;;;;;;;4.90;3.47;;;;;;;17.09;68.86;99469.75;5143709;28;20069;-72
2022/07/01 10:13:31;;;;;;;5.38;3.35;;;;;;;17.59;68.64;99461.25;5143488;28;20066;-73
2022/07/01 10:16:21;;;;;;;5.10;3.22;;;;;;;17.91;68.54;99485.38;5144392;28;20109;-73
2022/07/01 10:19:25;;;;;;;4.32;3.20;;;;;;;17.70;69.97;99478.78;5131707;28;20058;-74
2022/07/01 10:22:29;;;;;;;4.43;3.30;;;;;;;18.21;67.88;99479.13;5144281;28;20197;-71
2022/07/01 10:25:43;;;;;;;5.07;3.88;;;;;;;18.31;68.60;99482.38;5143733;28;20114;-72
2022/07/01 10:28:41;;;;;;;2.88;2.58;;;;;;;18.60;67.04;99491.47;5134259;28;20061;-73
2022/07/01 10:31:37;;;;;;;3.83;2.53;;;;;;;18.79;66.90;99495.53;5142715;28;20066;-73
2022/07/01 10:34:37;;;;;;;4.70;2.70;;;;;;;19.42;64.65;99487.88;5130508;28;20062;-72
2022/07/01 10:37:28;;;;;;;4.82;2.45;;;;;;;19.14;66.42;99499.31;5143312;28;20058;-72
2022/07/01 10:40:18;;;;;;;2.83;2.00;;;;;;;19.19;64.51;99470.00;5143961;28;20516;-72
2022/07/01 10:43:08;;;;;;;2.88;2.33;;;;;;;19.74;62.85;99502.75;5144150;28;20551;-72
2022/07/01 10:46:10;;;;;;;6.13;1.67;;;;;;;19.68;62.49;99498.13;5144253;28;20532;-73
2022/07/01 10:49:00;;;;;;;4.30;1.73;;;;;;;19.54;61.47;99489.06;5143320;28;20057;-72
2022/07/01 10:51:53;;;;;;;5.63;1.75;;;;;;;19.54;64.10;99505.19;5142813;28;20066;-72
2022/07/01 10:54:45;;;;;;;3.70;1.88;;;;;;;19.63;63.48;99516.66;5144890;28;20053;-72
2022/07/01 10:57:41;;;;;;;5.80;1.38;;;;;;;20.10;61.05;99510.78;5142827;28;20605;-73
2022/07/01 11:00:34;;;;;;;3.15;1.73;;;;;;;19.66;59.57;99522.53;5132012;28;20326;-72
2022/07/01 11:03:24;;;;;;;2.35;1.17;;;;;;;19.54;60.44;99515.94;5142742;28;20420;-73
2022/07/01 11:06:17;;;;;;;2.17;1.17;;;;;;;19.93;58.68;99523.66;5127789;28;20055;-73
2022/07/01 11:09:07;;;;;;;1.77;1.30;;;;;;;19.94;58.26;99527.19;5142821;28;20509;-74
2022/07/01 11:11:57;;;;;;;6.72;1.50;;;;;;;20.42;60.54;99506.69;5142635;28;20197;-73
2022/07/01 11:14:47;;;;;;;2.28;1.60;;;;;;;20.82;58.64;99528.56;5142557;28;20050;-72
2022/07/01 11:17:48;;;;;;;3.28;1.90;;;;;;;21.23;58.29;99508.91;5141917;28;20061;-73
2022/07/01 11:20:38;;;;;;;2.47;1.48;;;;;;;21.64;58.56;99520.72;5140136;28;20113;-74
2022/07/01 11:23:28;;;;;;;3.25;1.80;;;;;;;21.08;58.24;99521.69;5147497;28;20416;-74
2022/07/01 11:26:23;;;;;;;3.05;1.67;;;;;;;20.99;56.07;99494.06;5142674;28;20461;-73
2022/07/01 11:29:23;;;;;;;2.35;1.40;;;;;;;21.45;55.10;99496.16;5143813;28;20150;-73
2022/07/01 11:32:27;;;;;;;3.60;2.05;;;;;;;21.20;53.60;99501.22;5142453;28;20050;-73
2022/07/01 11:41:42;;;;;;;3.03;1.63;;;;;;;20.64;55.94;99506.69;5131174;28;20077;-72
2022/07/01 11:44:33;;;;;;;2.13;1.75;;;;;;;20.09;56.35;99503.72;5143188;28;20050;-72
2022/07/01 11:47:25;;;;;;;2.65;1.80;;;;;;;20.02;54.78;99510.06;5128071;28;20521;-72
2022/07/01 11:50:15;;;;;;;2.20;1.50;;;;;;;20.14;56.03;99503.97;5142899;28;20513;-72
2022/07/01 11:53:07;;;;;;;4.68;2.08;;;;;;;20.18;56.68;99490.97;5139217;28;20058;-72
2022/07/01 11:55:58;;;;;;;2.00;1.73;;;;;;;20.56;57.01;99507.69;5141951;28;20054;-73
2022/07/01 11:58:52;;;;;;;3.00;1.52;;;;;;;20.80;53.83;99508.25;5142639;28;20204;-73
2022/07/01 12:01:43;;;;;;;1.63;1.52;;;;;;;21.41;53.95;99505.69;5141813;28;20058;-72
2022/07/01 12:04:34;;;;;;;4.95;1.80;;;;;;;21.20;53.17;99505.78;5142933;28;20050;-71
2022/07/01 12:07:25;;;;;;;4.50;2.00;;;;;;;20.84;51.75;99517.59;5142604;28;20047;-72
2022/07/01 12:10:16;;;;;;;3.05;1.63;;;;;;;20.49;55.20;99505.91;5142458;28;20057;-72
2022/07/01 12:13:23;;;;;;;4.45;1.90;;;;;;;21.01;52.72;99505.47;5142424;28;20043;-71
2022/07/01 12:16:14;;;;;;;2.80;1.75;;;;;;;20.86;54.20;99499.34;5140797;28;20113;-72
2022/07/01 12:19:04;;;;;;;3.28;1.70;;;;;;;20.90;52.44;99507.91;5142500;28;20042;-72
2022/07/01 12:21:59;;;;;;;3.78;1.67;;;;;;;20.96;51.92;99496.31;5141362;28;20055;-72
2022/07/01 12:25:11;;;;;;;5.05;1.95;;;;;;;21.83;51.73;99498.34;5141312;28;20057;-72
2022/07/01 12:28:01;;;;;;;6.78;1.70;;;;;;;21.44;50.48;99494.50;5142236;28;20527;-72
2022/07/01 12:31:06;;;;;;;2.78;1.77;;;;;;;21.56;50.34;99510.94;5141643;28;20516;-71
2022/07/01 12:33:57;;;;;;;2.13;1.77;;;;;;;21.01;52.73;99494.69;5140725;28;20054;-72
2022/07/01 12:36:48;;;;;;;2.85;2.47;;;;;;;21.27;51.34;99506.66;5142049;28;20086;-71
2022/07/01 12:39:50;;;;;;;6.78;2.20;;;;;;;21.23;52.06;99508.91;5140871;28;20146;-72
2022/07/01 12:42:44;;;;;;;4.13;1.60;;;;;;;21.22;50.68;99498.31;5141084;28;20557;-72
2022/07/01 12:45:39;;;;;;;2.60;1.90;;;;;;;21.29;51.56;99501.88;5140932;28;20078;-72
2022/07/01 12:48:47;;;;;;;3.80;1.67;;;;;;;20.81;53.06;99502.66;5141846;28;20125;-71
2022/07/01 12:51:38;;;;;;;3.50;1.80;;;;;;;21.37;53.48;99490.13;5139839;28;20070;-72
2022/07/01 12:54:30;;;;;;;2.10;1.33;;;;;;;22.07;47.76;99501.50;5142248;28;20154;-72
2022/07/01 12:57:31;;;;;;;2.35;1.48;;;;;;;21.70;48.21;99496.47;5140472;28;20058;-72
2022/07/01 13:00:29;;;;;;;3.72;1.58;;;;;;;21.97;49.67;99496.50;5141438;28;20051;-72
2022/07/01 13:03:25;;;;;;;1.98;1.48;;;;;;;21.46;48.72;99488.91;5139853;28;20137;-72
2022/07/01 13:06:15;;;;;;;4.10;1.50;;;;;;;22.14;48.57;99486.97;5141883;28;20104;-72
2022/07/01 13:09:05;;;;;;;2.00;1.48;;;;;;;21.68;49.87;99485.03;5128955;28;20074;-72
2022/07/01 13:11:56;;;;;;;2.30;1.60;;;;;;;21.45;49.14;99487.22;5140711;28;20058;-72
2022/07/01 13:14:47;;;;;;;2.42;1.30;;;;;;;21.45;49.96;99479.97;5138885;28;20297;-71
2022/07/01 13:17:37;;;;;;;2.75;1.63;;;;;;;20.72;52.66;99462.59;5137463;28;20058;-71
2022/07/01 13:20:28;;;;;;;6.40;1.70;;;;;;;21.35;52.34;99471.44;5140278;28;20097;-72
2022/07/01 13:23:18;;;;;;;4.30;1.52;;;;;;;21.80;51.25;99485.28;5139763;28;20065;-72
2022/07/01 13:26:08;;;;;;;3.00;1.98;;;;;;;21.81;51.51;99478.81;5138502;28;20571;-72
2022/07/01 13:28:59;;;;;;;5.38;1.70;;;;;;;22.19;51.36;99483.69;5140083;28;20129;-73
2022/07/01 13:31:49;;;;;;;2.85;1.65;;;;;;;22.47;49.67;99486.16;5139131;28;20073;-74
2022/07/01 13:34:39;;;;;;;1.48;1.33;;;;;;;22.44;49.88;99475.78;5126282;28;20055;-74
2022/07/01 13:37:35;;;;;;;4.38;2.10;;;;;;;22.56;50.62;99474.13;5140149;28;20134;-73
2022/07/01 13:40:25;;;;;;;3.78;1.40;;;;;;;22.91;49.50;99490.91;5140874;28;20539;-71
2022/07/01 13:43:16;;;;;;;2.17;1.20;;;;;;;23.20;47.36;99491.44;5140317;28;20552;-71